Bob Sikes Airport
KCEW : now visible

Airfield :











YOU CAN JOIN US ON...

 
LOGIN :

Register | Disclaimer

   EN    FR    IT 

 









Legend :    VFR   Marginal VFR   IFR   Intensive IFR   Very Intensive IFR
Visi :
Ceiling :
>= 8 km
>= 3000ft
5 to 8 km
1000 to 3000 ft
1500m to 5 km
500 to 1000 ft
800 to 1500m
200 to 500 ft
< 800m
< 200 ft
Symbols :   Thunderstorms  Fog  Heavy snow  Heavy precipitations  Wind > 20 kt






- Airport Elevation : 213 ft


KCEW - Bob Sikes

CURRENT METAR :
  • 041253Z AUTO 00000KT 10SM CLR 14/13 A3012 RMK AO2 SLP198 T01440128

EXPIRED METARs :
  • 041153Z AUTO 00000KT 7SM CLR 11/09 A3011 RMK AO2 SLP195 T01060094 10156 20100 53009
  • 041053Z AUTO 00000KT 10SM CLR 11/10 A3010 RMK AO2 SLP192 T01060100

TAF N/A
KZJX FIR / North America



MET'MAP, your aeronautical weather chart ! - Copyright ORBIFLY December 2007 - Disclaimer

ORBIFLY MET'MAP TEAM :

Programming & Development : Alexandra Zaïnal
Original concept : Baudouin d'Aumeries
Technical & hardware support : Manuel Goepfert
Assistance : Marc-Olivier Méhu




SOURCES & CREDITS :

   NOAA       Earth
Advisory